Time;durP1;ratioP1;P1;durP2;ratioP2;P2;SDS_P1;SDS_P2;PMS_P1;PMS_P2;Temp;Humidity;BMP_temperature;BMP_pressure;BME280_temperature;BME280_humidity;BME280_pressure;Samples;Min_cycle;Max_cycle;Signal;HPM_P1;HPM_P2
2023/01/10 00:00:52;;;;;;;24.48;5.05;;;;;;;4.49;100.00;99633.63;4993904;28;20040;-79
2023/01/10 00:03:18;;;;;;;23.73;4.43;;;;;;;4.50;100.00;99635.28;5006836;28;20109;-79
2023/01/10 00:05:44;;;;;;;22.50;2.83;;;;;;;4.51;100.00;99631.72;5011260;28;20046;-80
2023/01/10 00:08:14;;;;;;;22.98;3.08;;;;;;;4.55;100.00;99623.50;5008759;28;20092;-79
2023/01/10 00:10:41;;;;;;;27.10;4.20;;;;;;;4.53;100.00;99627.16;4976235;28;20557;-80
2023/01/10 00:13:23;;;;;;;25.48;4.57;;;;;;;4.55;100.00;99625.25;5010829;28;20075;-79
2023/01/10 00:15:50;;;;;;;21.90;3.38;;;;;;;4.53;100.00;99627.16;4970812;28;20038;-79
2023/01/10 00:18:16;;;;;;;18.52;3.45;;;;;;;4.53;100.00;99619.31;4992687;28;20120;-79
2023/01/10 00:20:45;;;;;;;17.00;2.88;;;;;;;4.52;100.00;99609.81;4993569;28;20040;-79
2023/01/10 00:23:11;;;;;;;20.38;3.72;;;;;;;4.54;100.00;99597.44;4988522;28;20390;-79
2023/01/10 00:25:38;;;;;;;20.23;2.97;;;;;;;4.56;100.00;99585.88;5005653;28;20501;-79
2023/01/10 00:28:18;;;;;;;17.02;3.55;;;;;;;4.55;100.00;99588.63;4974495;28;20099;-79
2023/01/10 00:30:59;;;;;;;22.50;3.70;;;;;;;4.57;100.00;99574.44;5000999;28;20478;-79
2023/01/10 00:33:27;;;;;;;14.98;3.35;;;;;;;4.54;100.00;99573.88;4976212;28;20041;-79
2023/01/10 00:35:53;;;;;;;24.48;4.30;;;;;;;4.51;100.00;99572.34;4980777;28;20030;-80
2023/01/10 00:38:19;;;;;;;27.90;6.25;;;;;;;4.50;100.00;99567.22;4974970;28;20449;-79
2023/01/10 00:40:45;;;;;;;26.45;4.80;;;;;;;4.51;100.00;99566.28;5001003;28;20030;-78
2023/01/10 00:45:58;;;;;;;19.63;4.55;;;;;;;4.46;100.00;99546.56;5002093;28;20037;-79
2023/01/10 00:48:24;;;;;;;17.15;3.53;;;;;;;4.45;100.00;99533.59;4990479;28;20050;-79
2023/01/10 00:50:50;;;;;;;23.77;3.72;;;;;;;4.45;100.00;99530.97;5000682;28;20038;-79
2023/01/10 00:53:16;;;;;;;21.83;3.67;;;;;;;4.46;100.00;99525.63;5001577;28;20088;-78
2023/01/10 00:55:42;;;;;;;22.38;3.38;;;;;;;4.46;100.00;99511.69;5004971;28;20793;-78
2023/01/10 00:58:10;;;;;;;13.35;2.63;;;;;;;4.45;100.00;99516.13;4964088;28;20044;-78
2023/01/10 01:00:40;;;;;;;20.00;4.38;;;;;;;4.50;100.00;99513.13;4973275;28;20042;-78
2023/01/10 01:03:07;;;;;;;18.75;3.42;;;;;;;4.47;100.00;99508.13;4989520;28;20054;-78
2023/01/10 01:05:38;;;;;;;15.80;3.15;;;;;;;4.48;100.00;99507.16;5007218;28;20087;-78
2023/01/10 01:08:04;;;;;;;22.58;2.83;;;;;;;4.46;100.00;99509.06;4992768;28;20053;-78
2023/01/10 01:10:30;;;;;;;24.80;4.28;;;;;;;4.50;100.00;99509.66;5001176;28;20493;-79
2023/01/10 01:12:58;;;;;;;15.88;2.92;;;;;;;4.51;100.00;99506.91;4974856;28;20029;-78
2023/01/10 01:15:25;;;;;;;21.08;2.83;;;;;;;4.51;100.00;99501.69;4980885;28;20125;-78
2023/01/10 01:17:52;;;;;;;23.55;3.22;;;;;;;4.51;100.00;99504.28;4985887;28;20087;-78
2023/01/10 01:20:19;;;;;;;33.58;6.80;;;;;;;4.51;100.00;99495.63;5005881;28;20470;-78
2023/01/10 01:22:46;;;;;;;19.13;3.08;;;;;;;4.50;100.00;99479.09;4990424;28;20038;-78
2023/01/10 01:25:11;;;;;;;23.75;3.75;;;;;;;4.51;100.00;99469.47;4986621;28;20584;-78
2023/01/10 01:27:37;;;;;;;18.20;2.67;;;;;;;4.51;100.00;99444.09;4972047;28;20033;-78
2023/01/10 01:30:08;;;;;;;24.73;2.85;;;;;;;4.55;100.00;99431.59;5008387;28;20110;-78
2023/01/10 01:32:34;;;;;;;17.98;2.60;;;;;;;4.55;100.00;99424.59;4986695;28;20068;-78
2023/01/10 01:35:01;;;;;;;15.98;2.75;;;;;;;4.55;100.00;99403.66;4995000;28;20470;-78
2023/01/10 01:37:27;;;;;;;20.88;3.42;;;;;;;4.52;100.00;99387.38;4986192;28;20034;-78
2023/01/10 01:39:53;;;;;;;18.70;3.05;;;;;;;4.50;100.00;99376.19;4989716;28;20045;-78
2023/01/10 01:42:28;;;;;;;15.60;2.42;;;;;;;4.52;100.00;99361.19;5004084;28;20065;-81
2023/01/10 01:45:12;;;;;;;18.23;3.40;;;;;;;4.50;100.00;99332.56;4984749;28;20479;-81
2023/01/10 01:47:46;;;;;;;34.78;4.43;;;;;;;4.46;100.00;99318.88;4989713;28;20076;-78
2023/01/10 01:50:31;;;;;;;19.90;2.83;;;;;;;4.45;100.00;99305.94;4956595;28;20486;-78
2023/01/10 01:53:01;;;;;;;10.75;2.17;;;;;;;4.51;100.00;99291.50;5004409;28;20564;-80
2023/01/10 01:55:30;;;;;;;17.75;2.17;;;;;;;4.54;100.00;99278.16;5005425;28;20038;-80
2023/01/10 01:57:59;;;;;;;24.58;2.67;;;;;;;4.56;100.00;99270.97;5003339;28;20034;-81
2023/01/10 02:00:25;;;;;;;9.40;1.40;;;;;;;4.57;100.00;99265.63;5001056;28;20469;-79
2023/01/10 02:02:55;;;;;;;10.05;1.55;;;;;;;4.61;100.00;99270.59;5017626;28;20042;-78
2023/01/10 02:05:23;;;;;;;9.23;1.00;;;;;;;4.64;100.00;99252.81;5007086;28;20042;-78
2023/01/10 02:07:55;;;;;;;8.52;0.85;;;;;;;4.66;100.00;99253.53;5001524;28;20031;-80
2023/01/10 02:10:30;;;;;;;9.57;1.10;;;;;;;4.69;100.00;99234.94;4989531;28;20042;-80
2023/01/10 02:13:01;;;;;;;8.38;0.73;;;;;;;4.69;100.00;99221.00;4986914;28;20390;-84
2023/01/10 02:15:28;;;;;;;6.05;1.52;;;;;;;4.70;100.00;99213.03;5003483;28;20069;-84
2023/01/10 02:17:55;;;;;;;12.50;1.83;;;;;;;4.70;100.00;99196.47;4979225;28;20389;-79
2023/01/10 02:20:22;;;;;;;11.15;1.35;;;;;;;4.74;100.00;99184.78;4991392;28;20089;-78
2023/01/10 02:23:12;;;;;;;7.20;1.02;;;;;;;4.78;100.00;99185.34;4985976;28;20031;-81
2023/01/10 02:26:05;;;;;;;4.03;1.02;;;;;;;4.76;100.00;99174.97;4958967;28;20069;-84
2023/01/10 02:29:10;;;;;;;7.13;1.10;;;;;;;4.78;100.00;99159.97;4970202;28;20067;-81
2023/01/10 02:31:51;;;;;;;5.65;0.68;;;;;;;4.78;100.00;99164.41;4997042;28;20073;-78
2023/01/10 02:34:27;;;;;;;9.85;1.17;;;;;;;4.80;100.00;99142.34;4972322;28;20128;-81
2023/01/10 02:37:11;;;;;;;4.97;1.00;;;;;;;4.83;100.00;99133.38;4999529;28;20034;-83
2023/01/10 02:39:50;;;;;;;8.93;0.75;;;;;;;4.80;100.00;99128.41;4980359;28;20055;-84
2023/01/10 02:42:35;;;;;;;5.53;0.80;;;;;;;4.84;100.00;99111.47;4996442;28;20029;-79
2023/01/10 02:45:11;;;;;;;7.30;1.40;;;;;;;4.88;100.00;99114.63;4980952;28;20056;-80
2023/01/10 02:47:39;;;;;;;3.47;0.77;;;;;;;4.90;100.00;99097.81;4970244;28;20037;-82
2023/01/10 02:50:43;;;;;;;8.82;1.10;;;;;;;4.96;100.00;99099.03;4996646;28;20057;-85
2023/01/10 02:53:24;;;;;;;9.60;0.82;;;;;;;4.95;100.00;99079.88;5010314;28;20482;-78
2023/01/10 02:56:23;;;;;;;7.07;1.02;;;;;;;4.98;100.00;99073.56;4987127;28;20046;-82
2023/01/10 02:59:20;;;;;;;5.43;0.95;;;;;;;4.97;100.00;99050.94;4979565;28;20034;-86
2023/01/10 03:02:07;;;;;;;15.85;1.20;;;;;;;4.96;100.00;99042.28;4990624;28;20111;-79
2023/01/10 03:04:53;;;;;;;10.52;0.85;;;;;;;5.01;100.00;99041.00;4985649;28;20486;-80
2023/01/10 03:07:52;;;;;;;7.47;0.70;;;;;;;5.06;100.00;99018.66;4958834;28;20050;-80
2023/01/10 03:10:39;;;;;;;3.67;0.47;;;;;;;5.07;100.00;99001.97;4997969;28;20522;-80
2023/01/10 03:13:25;;;;;;;7.22;0.65;;;;;;;5.17;100.00;98982.78;5001687;28;20049;-80
2023/01/10 03:15:54;;;;;;;5.60;0.70;;;;;;;5.15;100.00;98975.06;4988598;28;20406;-80
2023/01/10 03:18:31;;;;;;;2.28;0.45;;;;;;;5.19;100.00;98967.75;5003742;28;20074;-81
2023/01/10 03:20:59;;;;;;;4.55;0.38;;;;;;;5.24;100.00;98935.88;4999815;28;20045;-80
2023/01/10 03:23:26;;;;;;;3.70;0.50;;;;;;;5.24;100.00;98935.88;4972910;28;20046;-80
2023/01/10 03:25:55;;;;;;;6.90;0.90;;;;;;;5.28;100.00;98921.50;4994725;28;20030;-81
2023/01/10 03:28:29;;;;;;;2.25;0.43;;;;;;;5.31;100.00;98916.78;4990924;28;20448;-80
2023/01/10 03:31:02;;;;;;;3.58;0.75;;;;;;;5.39;100.00;98913.41;4970203;28;20681;-81
2023/01/10 03:33:31;;;;;;;1.65;0.30;;;;;;;5.42;100.00;98897.41;5005285;28;20034;-80
2023/01/10 03:36:17;;;;;;;5.25;0.63;;;;;;;5.43;100.00;98890.38;4999386;28;20475;-81
2023/01/10 03:38:46;;;;;;;2.83;0.40;;;;;;;5.49;100.00;98875.84;5002299;28;20070;-81
2023/01/10 03:41:19;;;;;;;1.27;0.32;;;;;;;5.52;100.00;98865.88;5000226;28;20054;-80
2023/01/10 03:46:47;;;;;;;3.25;0.32;;;;;;;5.59;100.00;98856.44;4976847;28;20040;-84
2023/01/10 03:49:15;;;;;;;1.90;0.28;;;;;;;5.65;100.00;98848.94;4989321;28;20061;-84
2023/01/10 03:51:42;;;;;;;4.68;0.40;;;;;;;5.69;100.00;98845.03;4987745;28;20044;-81
2023/01/10 03:54:08;;;;;;;0.85;0.22;;;;;;;5.69;100.00;98845.03;4988598;28;20433;-80
2023/01/10 03:56:48;;;;;;;1.35;0.35;;;;;;;5.78;100.00;98820.53;4995177;28;20029;-80
2023/01/10 03:59:16;;;;;;;0.28;0.15;;;;;;;5.85;100.00;98818.13;5002669;28;20036;-80
2023/01/10 04:01:42;;;;;;;2.45;0.40;;;;;;;5.84;100.00;98822.53;4991286;28;20473;-84
2023/01/10 04:04:07;;;;;;;1.25;0.40;;;;;;;5.88;100.00;98785.50;4948579;28;20130;-84
2023/01/10 04:06:34;;;;;;;1.67;0.20;;;;;;;5.89;100.00;98798.47;5001938;28;20022;-81
2023/01/10 04:09:03;;;;;;;1.17;0.10;;;;;;;5.92;100.00;98782.44;5010402;28;20038;-80
2023/01/10 04:11:30;;;;;;;1.08;0.20;;;;;;;5.97;100.00;98768.88;5004640;28;20493;-80
2023/01/10 04:13:55;;;;;;;0.45;0.10;;;;;;;6.01;100.00;98764.09;4988711;28;20366;-81
2023/01/10 04:16:21;;;;;;;1.75;0.10;;;;;;;6.07;100.00;98758.25;5010849;28;20033;-83
2023/01/10 04:18:47;;;;;;;0.20;0.10;;;;;;;6.12;100.00;98747.28;5006231;28;20045;-84
2023/01/10 04:21:13;;;;;;;1.20;0.10;;;;;;;6.19;100.00;98753.56;5002674;28;20029;-84
2023/01/10 04:23:39;;;;;;;0.57;0.03;;;;;;;6.26;100.00;98740.66;5010766;28;20068;-84
2023/01/10 04:26:05;;;;;;;0.75;0.10;;;;;;;6.28;100.00;98721.13;5014127;28;20435;-81
2023/01/10 04:28:31;;;;;;;0.10;0.00;;;;;;;6.30;100.00;98724.44;5001253;28;20025;-80
2023/01/10 04:30:57;;;;;;;0.00;0.00;;;;;;;6.30;100.00;98702.59;4983839;28;20044;-80
2023/01/10 04:33:23;;;;;;;1.27;0.20;;;;;;;6.34;100.00;98701.28;4991578;28;20474;-80
2023/01/10 04:35:50;;;;;;;0.00;0.00;;;;;;;6.39;100.00;98690.31;4980460;28;20048;-80
2023/01/10 04:38:17;;;;;;;0.70;0.20;;;;;;;6.43;100.00;98689.84;4987981;28;20061;-80
2023/01/10 04:40:43;;;;;;;0.75;0.10;;;;;;;6.46;100.00;98683.47;5004553;28;20134;-83
2023/01/10 04:43:10;;;;;;;0.00;0.00;;;;;;;6.49;100.00;98677.88;4968780;28;20418;-84
2023/01/10 04:45:36;;;;;;;0.10;0.00;;;;;;;6.52;100.00;98667.06;4971436;28;20045;-84
2023/01/10 04:48:03;;;;;;;0.13;0.00;;;;;;;6.58;100.00;98671.66;4993241;28;20041;-83
2023/01/10 04:50:28;;;;;;;0.57;0.10;;;;;;;6.63;100.00;98665.91;4956239;28;20409;-84
2023/01/10 04:52:54;;;;;;;0.10;0.00;;;;;;;6.66;100.00;98667.38;5009383;28;20092;-80
2023/01/10 04:55:20;;;;;;;0.32;0.00;;;;;;;6.71;100.00;98638.84;4987142;28;20038;-80
2023/01/10 04:57:46;;;;;;;0.10;0.10;;;;;;;6.73;100.00;98638.69;5007488;28;20108;-84
2023/01/10 05:00:12;;;;;;;1.60;0.00;;;;;;;6.78;100.00;98631.97;5000460;28;20062;-84
2023/01/10 05:02:43;;;;;;;0.00;0.00;;;;;;;6.83;100.00;98634.09;5010344;28;20426;-84
2023/01/10 05:05:11;;;;;;;0.15;0.03;;;;;;;6.90;100.00;98624.56;4968881;28;20041;-83
2023/01/10 05:07:37;;;;;;;0.00;0.00;;;;;;;6.92;100.00;98616.53;4967180;28;20089;-84
2023/01/10 05:10:04;;;;;;;0.08;0.00;;;;;;;6.97;100.00;98592.38;5006093;28;20121;-83
2023/01/10 05:12:30;;;;;;;0.00;0.00;;;;;;;6.99;100.00;98585.16;5005938;28;20718;-80
2023/01/10 05:14:56;;;;;;;0.00;0.00;;;;;;;7.02;100.00;98577.78;5006104;28;20048;-80
2023/01/10 05:17:22;;;;;;;1.90;0.00;;;;;;;7.04;100.00;98574.97;4963829;28;20042;-83
2023/01/10 05:19:48;;;;;;;0.47;0.10;;;;;;;7.09;100.00;98564.75;4983463;28;20034;-84
2023/01/10 05:22:14;;;;;;;0.40;0.00;;;;;;;7.14;100.00;98575.59;4986091;28;20498;-80
2023/01/10 05:24:40;;;;;;;0.00;0.00;;;;;;;7.19;100.00;98554.91;4969056;28;20463;-80
2023/01/10 05:27:06;;;;;;;0.65;0.00;;;;;;;7.20;100.00;98559.16;5006014;28;20152;-80
2023/01/10 05:29:33;;;;;;;0.10;0.00;;;;;;;7.27;100.00;98553.22;4987332;28;21121;-81
2023/01/10 05:31:59;;;;;;;0.90;0.03;;;;;;;7.30;100.00;98537.09;5007656;28;20033;-81
2023/01/10 05:34:24;;;;;;;0.00;0.00;;;;;;;7.31;100.00;98544.81;4994851;28;20038;-80
2023/01/10 05:36:50;;;;;;;0.47;0.00;;;;;;;7.31;100.00;98526.44;4982005;28;20034;-81
2023/01/10 05:39:16;;;;;;;0.00;0.00;;;;;;;7.37;100.00;98522.31;4984207;28;20071;-80
2023/01/10 05:41:42;;;;;;;0.80;0.00;;;;;;;7.42;100.00;98519.97;5001841;28;20038;-81
2023/01/10 05:44:08;;;;;;;0.00;0.00;;;;;;;7.45;100.00;98514.38;4966926;28;20787;-81
2023/01/10 05:46:34;;;;;;;0.00;0.00;;;;;;;7.51;100.00;98514.69;4993465;28;20034;-80
2023/01/10 05:48:59;;;;;;;0.10;0.00;;;;;;;7.56;100.00;98512.34;4992456;28;20052;-80
2023/01/10 05:51:25;;;;;;;0.10;0.00;;;;;;;7.62;100.00;98503.78;4981117;28;20485;-80
2023/01/10 05:53:51;;;;;;;0.00;0.00;;;;;;;7.65;100.00;98494.72;4983944;28;20505;-80
2023/01/10 05:56:17;;;;;;;0.00;0.00;;;;;;;7.69;100.00;98490.75;4985516;28;20048;-81
2023/01/10 05:58:43;;;;;;;0.22;0.00;;;;;;;7.74;100.00;98496.28;4967186;28;20647;-81
2023/01/10 06:01:09;;;;;;;0.00;0.00;;;;;;;7.79;100.00;98501.03;5009156;28;20056;-80
2023/01/10 06:03:36;;;;;;;0.00;0.00;;;;;;;7.82;100.00;98484.91;5003779;28;20708;-80
2023/01/10 06:06:02;;;;;;;0.00;0.00;;;;;;;7.87;100.00;98469.41;4974254;28;20560;-80
2023/01/10 06:08:28;;;;;;;2.00;0.05;;;;;;;8.04;100.00;98474.56;4985339;28;20292;-81
2023/01/10 06:10:54;;;;;;;0.00;0.00;;;;;;;8.25;100.00;98455.47;5007421;28;20112;-81
2023/01/10 06:13:21;;;;;;;0.43;0.03;;;;;;;8.45;100.00;98460.22;4974504;28;20058;-81
2023/01/10 06:15:47;;;;;;;0.00;0.00;;;;;;;8.62;100.00;98454.81;5008100;28;20606;-81
2023/01/10 06:18:14;;;;;;;0.20;0.00;;;;;;;8.71;100.00;98458.19;5020867;28;20406;-81
2023/01/10 06:20:40;;;;;;;0.00;0.00;;;;;;;8.78;100.00;98452.00;5011575;28;20171;-80
2023/01/10 06:23:06;;;;;;;0.20;0.05;;;;;;;8.84;100.00;98444.38;4990885;28;20053;-81
2023/01/10 06:25:39;;;;;;;0.15;0.00;;;;;;;8.94;100.00;98434.38;4925071;28;20525;-81
2023/01/10 06:28:06;;;;;;;0.00;0.00;;;;;;;8.95;100.00;98443.91;5003282;28;20120;-81
2023/01/10 06:30:34;;;;;;;0.10;0.00;;;;;;;9.00;100.00;98438.91;5005623;28;20080;-81
2023/01/10 06:33:05;;;;;;;0.00;0.00;;;;;;;9.13;100.00;98447.97;5000647;28;20064;-81
2023/01/10 06:35:32;;;;;;;3.15;0.10;;;;;;;9.12;100.00;98434.00;5024425;28;20044;-81
2023/01/10 06:37:58;;;;;;;1.40;0.10;;;;;;;9.18;100.00;98435.88;5025666;28;20030;-81
2023/01/10 06:40:25;;;;;;;0.10;0.05;;;;;;;9.25;100.00;98433.31;5017285;28;20033;-81
2023/01/10 06:42:51;;;;;;;0.10;0.10;;;;;;;9.28;100.00;98438.22;5002851;28;20042;-81
2023/01/10 06:45:17;;;;;;;0.03;0.00;;;;;;;9.32;100.00;98437.84;5006675;28;20037;-81
2023/01/10 06:47:43;;;;;;;0.65;0.00;;;;;;;9.38;100.00;98437.91;5023495;28;20053;-81
2023/01/10 06:50:10;;;;;;;0.00;0.00;;;;;;;9.42;100.00;98433.09;5004901;28;20057;-81
2023/01/10 06:52:36;;;;;;;0.15;0.00;;;;;;;9.47;100.00;98436.00;5004880;28;20077;-80
2023/01/10 06:55:03;;;;;;;0.43;0.00;;;;;;;9.55;100.00;98430.59;5009923;28;20493;-81
2023/01/10 06:57:29;;;;;;;0.00;0.00;;;;;;;9.58;100.00;98424.13;5028978;28;20026;-80
2023/01/10 06:59:55;;;;;;;0.30;0.10;;;;;;;9.60;100.00;98426.56;5006279;28;20037;-81
2023/01/10 07:02:21;;;;;;;1.35;0.10;;;;;;;9.62;100.00;98421.94;5008313;28;21113;-80
2023/01/10 07:04:50;;;;;;;0.20;0.00;;;;;;;9.64;100.00;98417.28;5008776;28;20045;-80
2023/01/10 07:07:17;;;;;;;0.55;0.03;;;;;;;9.65;100.00;98418.91;4982620;28;20029;-80
2023/01/10 07:09:43;;;;;;;0.30;0.10;;;;;;;9.67;100.00;98408.97;5011793;28;20866;-81
2023/01/10 07:12:09;;;;;;;0.30;0.10;;;;;;;9.68;100.00;98405.34;5022007;28;20030;-81
2023/01/10 07:14:34;;;;;;;2.92;0.40;;;;;;;9.71;100.00;98391.78;5021132;28;20107;-81
2023/01/10 07:17:01;;;;;;;0.85;0.10;;;;;;;9.75;100.00;98395.66;5012675;28;20119;-81
2023/01/10 07:19:27;;;;;;;0.28;0.10;;;;;;;9.77;100.00;98392.84;4977710;28;20123;-81
2023/01/10 07:21:53;;;;;;;0.00;0.00;;;;;;;9.80;100.00;98379.25;4946744;28;20758;-81
2023/01/10 07:24:19;;;;;;;1.65;0.10;;;;;;;9.83;100.00;98383.34;4994832;28;20037;-80
2023/01/10 07:26:44;;;;;;;0.30;0.10;;;;;;;9.84;100.00;98367.34;5018804;28;20065;-81
2023/01/10 07:29:10;;;;;;;1.73;0.10;;;;;;;9.90;100.00;98378.94;5010314;28;20040;-81
2023/01/10 07:31:36;;;;;;;0.68;0.20;;;;;;;9.91;100.00;98372.66;4989832;28;20034;-81
2023/01/10 07:34:02;;;;;;;1.65;0.00;;;;;;;9.97;100.00;98379.00;5005453;28;20034;-81
2023/01/10 07:36:28;;;;;;;0.50;0.40;;;;;;;10.01;100.00;98378.41;5024683;28;20140;-81
2023/01/10 07:38:55;;;;;;;1.73;0.17;;;;;;;10.03;100.00;98376.38;5009033;28;20087;-82
2023/01/10 07:41:21;;;;;;;1.40;0.10;;;;;;;10.10;100.00;98365.06;4994137;28;20420;-81
2023/01/10 07:43:47;;;;;;;0.10;0.10;;;;;;;10.14;100.00;98364.50;4993686;28;20068;-81
2023/01/10 07:46:13;;;;;;;2.25;0.65;;;;;;;10.20;100.00;98368.19;5006049;28;20065;-82
2023/01/10 07:48:42;;;;;;;3.03;0.10;;;;;;;10.24;100.00;98358.84;5004522;28;20080;-81
2023/01/10 07:51:08;;;;;;;0.95;0.10;;;;;;;10.29;100.00;98353.81;5024932;28;20044;-81
2023/01/10 07:53:34;;;;;;;0.80;0.10;;;;;;;10.32;100.00;98344.69;4984366;28;20044;-80
2023/01/10 07:56:02;;;;;;;0.70;0.10;;;;;;;10.39;100.00;98350.00;4980922;28;20506;-81
2023/01/10 07:58:28;;;;;;;0.20;0.10;;;;;;;10.43;100.00;98349.41;4990789;28;20041;-81
2023/01/10 08:00:58;;;;;;;0.22;0.03;;;;;;;10.50;100.00;98356.59;5026492;28;20485;-81
2023/01/10 08:03:24;;;;;;;1.70;0.10;;;;;;;10.50;100.00;98359.22;5020270;28;20031;-80
2023/01/10 08:05:56;;;;;;;0.00;0.00;;;;;;;10.52;100.00;98363.31;5009718;28;20030;-81
2023/01/10 08:08:21;;;;;;;0.75;0.10;;;;;;;10.60;100.00;98357.06;4990486;28;20092;-81
2023/01/10 08:10:47;;;;;;;0.52;0.10;;;;;;;10.58;100.00;98351.16;5003018;28;20502;-81
2023/01/10 08:13:13;;;;;;;0.52;0.00;;;;;;;10.61;100.00;98348.13;4986759;28;20375;-81
2023/01/10 08:15:38;;;;;;;0.82;0.10;;;;;;;10.61;100.00;98345.47;5018206;28;20037;-81
2023/01/10 08:18:04;;;;;;;0.32;0.10;;;;;;;10.62;100.00;98339.16;4985422;28;20034;-81
2023/01/10 08:20:30;;;;;;;2.40;0.10;;;;;;;10.59;100.00;98341.41;4986110;28;20045;-80
2023/01/10 08:22:57;;;;;;;0.13;0.10;;;;;;;10.63;100.00;98334.72;5002238;28;20672;-80
2023/01/10 08:25:24;;;;;;;0.95;0.10;;;;;;;10.61;100.00;98331.44;5017661;28;20097;-81
2023/01/10 08:27:50;;;;;;;0.20;0.10;;;;;;;10.62;100.00;98333.09;5018015;28;20034;-81
2023/01/10 08:30:16;;;;;;;0.65;0.10;;;;;;;10.58;100.00;98331.84;5004904;28;20069;-81
2023/01/10 08:32:43;;;;;;;1.10;0.13;;;;;;;10.55;100.00;98327.78;5002610;28;20037;-81
2023/01/10 08:35:09;;;;;;;0.85;0.10;;;;;;;10.51;100.00;98329.97;4976873;28;20169;-81
2023/01/10 08:37:36;;;;;;;1.85;0.20;;;;;;;10.52;100.00;98325.53;5024168;28;20585;-82
2023/01/10 08:40:02;;;;;;;1.42;0.45;;;;;;;10.51;100.00;98318.63;5009105;28;20381;-81
2023/01/10 08:42:28;;;;;;;0.40;0.30;;;;;;;10.52;100.00;98312.31;5008615;28;20033;-81
2023/01/10 08:44:54;;;;;;;2.35;0.30;;;;;;;10.51;100.00;98303.56;4986814;28;20067;-81
2023/01/10 08:47:20;;;;;;;0.43;0.28;;;;;;;10.52;100.00;98296.47;5005492;28;20733;-81
2023/01/10 08:49:48;;;;;;;0.30;0.10;;;;;;;10.51;100.00;98287.72;5002138;28;20049;-81
2023/01/10 08:52:15;;;;;;;2.75;0.20;;;;;;;10.52;100.00;98302.56;5012049;28;20034;-82
2023/01/10 08:54:40;;;;;;;2.88;0.22;;;;;;;10.54;100.00;98315.59;5018353;28;20189;-82
2023/01/10 08:57:06;;;;;;;2.38;0.30;;;;;;;10.54;100.00;98308.44;4977518;28;20052;-81
2023/01/10 08:59:32;;;;;;;0.52;0.20;;;;;;;10.57;100.00;98311.72;4985847;28;20044;-82
2023/01/10 09:01:58;;;;;;;0.77;0.65;;;;;;;10.57;100.00;98309.09;4996265;28;20036;-82
2023/01/10 09:04:28;;;;;;;3.63;0.43;;;;;;;10.63;100.00;98319.69;5001860;28;20045;-82
2023/01/10 09:06:55;;;;;;;2.50;0.43;;;;;;;10.63;100.00;98321.50;4991969;28;20117;-82
2023/01/10 09:09:21;;;;;;;0.88;0.30;;;;;;;10.62;100.00;98306.66;4988357;28;20104;-81
2023/01/10 09:11:47;;;;;;;2.60;0.52;;;;;;;10.59;100.00;98302.56;4988941;28;20055;-81
2023/01/10 09:14:13;;;;;;;2.42;0.40;;;;;;;10.65;100.00;98304.44;5007439;28;20076;-81
2023/01/10 09:16:39;;;;;;;2.95;0.30;;;;;;;10.63;100.00;98301.19;4994501;28;20037;-81
2023/01/10 09:19:05;;;;;;;1.17;0.20;;;;;;;10.65;100.00;98301.00;5019241;28;20032;-81
2023/01/10 09:21:31;;;;;;;2.55;0.30;;;;;;;10.68;100.00;98303.25;5005060;28;20041;-81
2023/01/10 09:23:56;;;;;;;1.70;0.20;;;;;;;10.70;100.00;98280.09;5007765;28;20037;-81
2023/01/10 09:26:22;;;;;;;2.55;0.30;;;;;;;10.71;100.00;98289.63;5019061;28;20091;-81
2023/01/10 09:28:48;;;;;;;2.35;0.20;;;;;;;10.70;100.00;98288.00;4985431;28;20116;-82
2023/01/10 09:31:14;;;;;;;2.60;0.38;;;;;;;10.73;100.00;98284.97;4995369;28;20064;-81
2023/01/10 09:33:41;;;;;;;5.28;0.40;;;;;;;10.74;100.00;98273.38;5024508;28;20037;-81
2023/01/10 09:36:08;;;;;;;2.28;0.30;;;;;;;10.78;100.00;98282.53;5009968;28;20271;-81
2023/01/10 09:38:34;;;;;;;1.98;0.47;;;;;;;10.79;100.00;98286.00;4989096;28;20038;-81
2023/01/10 09:41:37;;;;;;;2.53;0.38;;;;;;;10.79;100.00;98286.81;5016196;28;20504;-81
2023/01/10 09:44:12;;;;;;;2.25;0.38;;;;;;;10.81;100.00;98280.50;5005744;28;20056;-82
2023/01/10 09:46:54;;;;;;;5.50;0.77;;;;;;;10.82;100.00;98276.84;5019560;28;20104;-82
2023/01/10 09:49:31;;;;;;;3.40;0.50;;;;;;;10.87;100.00;98280.53;5013639;28;20078;-80
2023/01/10 09:51:58;;;;;;;3.08;0.80;;;;;;;10.84;100.00;98270.34;4995035;28;20085;-81
2023/01/10 09:54:41;;;;;;;1.50;0.30;;;;;;;10.88;100.00;98260.19;5007583;28;20037;-82
2023/01/10 09:57:18;;;;;;;1.88;0.50;;;;;;;10.90;100.00;98252.88;5018977;28;20029;-81
2023/01/10 09:59:49;;;;;;;2.75;0.30;;;;;;;10.90;100.00;98272.19;4990401;28;20033;-82
2023/01/10 10:02:21;;;;;;;2.83;0.30;;;;;;;10.91;100.00;98251.84;5021025;28;20033;-82
2023/01/10 10:05:03;;;;;;;0.35;0.20;;;;;;;10.94;100.00;98262.00;5007941;28;20044;-82
2023/01/10 10:07:29;;;;;;;4.70;1.90;;;;;;;10.92;100.00;98254.28;5007273;28;20064;-81
2023/01/10 10:09:54;;;;;;;2.95;0.60;;;;;;;10.94;100.00;98253.28;5001668;28;20082;-81
2023/01/10 10:13:05;;;;;;;4.20;2.25;;;;;;;11.00;100.00;98248.03;5001374;28;20038;-81
2023/01/10 10:16:07;;;;;;;9.85;6.43;;;;;;;10.97;100.00;98242.31;4960937;28;20048;-82
2023/01/10 10:19:02;;;;;;;3.38;1.30;;;;;;;10.99;100.00;98240.28;4984770;28;20080;-82
2023/01/10 10:21:46;;;;;;;7.18;5.35;;;;;;;11.01;100.00;98240.88;5021682;28;20059;-81
2023/01/10 10:24:21;;;;;;;6.65;3.38;;;;;;;11.00;100.00;98242.72;4988272;28;20090;-82
2023/01/10 10:27:22;;;;;;;3.97;2.15;;;;;;;11.06;100.00;98254.31;5029438;28;20172;-81
2023/01/10 10:29:51;;;;;;;2.95;2.40;;;;;;;11.03;100.00;98249.44;5029005;28;20026;-81
2023/01/10 10:32:29;;;;;;;8.35;5.90;;;;;;;11.10;100.00;98234.38;5015089;28;20108;-83
2023/01/10 10:35:12;;;;;;;3.22;1.42;;;;;;;11.12;100.00;98250.03;5009287;28;20486;-83
2023/01/10 10:37:43;;;;;;;3.78;0.52;;;;;;;11.10;100.00;98242.31;5024766;28;20072;-81
2023/01/10 10:40:08;;;;;;;1.73;0.85;;;;;;;11.11;100.00;98243.13;4983726;28;20069;-82
2023/01/10 10:42:43;;;;;;;4.57;3.97;;;;;;;11.17;100.00;98237.03;5011346;28;20029;-82
2023/01/10 10:45:21;;;;;;;1.42;0.60;;;;;;;11.17;100.00;98223.81;5011382;28;20037;-81
2023/01/10 10:48:21;;;;;;;5.20;0.80;;;;;;;11.18;100.00;98222.78;5007564;28;20070;-81
2023/01/10 10:51:00;;;;;;;2.83;1.63;;;;;;;11.22;100.00;98225.84;4945005;28;20042;-82
2023/01/10 10:53:31;;;;;;;2.22;0.90;;;;;;;11.20;100.00;98210.19;4983309;28;20510;-82
2023/01/10 10:55:58;;;;;;;2.15;1.02;;;;;;;11.21;100.00;98200.44;4997186;28;20034;-82
2023/01/10 10:58:24;;;;;;;3.30;2.00;;;;;;;11.21;100.00;98193.28;4993252;28;20038;-81
2023/01/10 11:00:51;;;;;;;3.80;1.48;;;;;;;11.25;100.00;98194.53;4971841;28;20030;-82
2023/01/10 11:03:35;;;;;;;4.65;0.70;;;;;;;11.25;100.00;98194.53;4989877;28;20081;-82
2023/01/10 11:06:01;;;;;;;3.28;0.80;;;;;;;11.24;100.00;98186.81;4990118;28;20127;-82
2023/01/10 11:08:29;;;;;;;1.92;1.08;;;;;;;11.26;100.00;98185.56;4977388;28;20023;-82
2023/01/10 11:10:57;;;;;;;6.55;4.15;;;;;;;11.29;100.00;98174.56;5005640;28;20041;-81
2023/01/10 11:13:32;;;;;;;4.65;1.60;;;;;;;11.33;100.00;98176.81;4986392;28;20060;-81
2023/01/10 11:16:03;;;;;;;3.15;1.23;;;;;;;11.32;100.00;98165.44;5006626;28;20053;-81
2023/01/10 11:18:30;;;;;;;2.35;0.93;;;;;;;11.33;100.00;98166.22;4958616;28;20041;-81
2023/01/10 11:21:04;;;;;;;1.95;0.60;;;;;;;11.33;100.00;98166.22;5005609;28;20029;-81
2023/01/10 11:23:39;;;;;;;4.72;1.20;;;;;;;11.37;100.00;98157.69;4974675;28;20041;-81
2023/01/10 11:26:20;;;;;;;3.22;0.43;;;;;;;11.34;100.00;98147.50;4985344;28;20097;-82
2023/01/10 11:28:46;;;;;;;3.33;1.10;;;;;;;11.35;100.00;98151.81;4989486;28;20034;-81
2023/01/10 11:31:12;;;;;;;1.63;0.40;;;;;;;11.33;100.00;98130.03;4972551;28;20076;-82
2023/01/10 11:33:41;;;;;;;3.33;0.50;;;;;;;11.37;100.00;98130.44;4995131;28;20053;-82
2023/01/10 11:36:12;;;;;;;3.45;0.50;;;;;;;11.38;100.00;98132.06;4987576;28;20441;-82
2023/01/10 11:38:38;;;;;;;3.65;1.42;;;;;;;11.39;100.00;98121.28;4990454;28;20038;-81
2023/01/10 11:41:21;;;;;;;4.68;2.40;;;;;;;11.45;100.00;98116.19;4997586;28;20512;-81
2023/01/10 11:43:47;;;;;;;1.45;0.77;;;;;;;11.41;100.00;98100.72;4979887;28;20026;-81
2023/01/10 11:46:16;;;;;;;7.18;3.13;;;;;;;11.44;100.00;98107.41;5003311;28;20026;-82
2023/01/10 11:48:49;;;;;;;3.72;1.20;;;;;;;11.48;100.00;98103.31;4994503;28;20084;-82